Time;durP1;ratioP1;P1;durP2;ratioP2;P2;SDS_P1;SDS_P2;PMS_P1;PMS_P2;Temp;Humidity;BMP_temperature;BMP_pressure;BME280_temperature;BME280_humidity;BME280_pressure;Samples;Min_cycle;Max_cycle;Signal;HPM_P1;HPM_P2
2022/04/01 00:00:34;;;;;;;1.73;1.38;;;19.20;91.70;;;;;;4226991;27;20264;-70
2022/04/01 00:02:37;;;;;;;1.52;1.42;;;19.30;91.90;;;;;;4228750;27;20607;-70
2022/04/01 00:04:40;;;;;;;1.60;1.48;;;19.30;91.90;;;;;;4226477;27;20289;-70
2022/04/01 00:06:42;;;;;;;3.08;1.60;;;19.20;91.70;;;;;;4230962;27;20247;-70
2022/04/01 00:08:46;;;;;;;1.55;1.40;;;19.20;91.70;;;;;;4228723;27;20279;-70
2022/04/01 00:10:48;;;;;;;2.35;1.38;;;19.20;91.70;;;;;;4228575;27;20287;-70
2022/04/01 00:12:50;;;;;;;1.73;1.30;;;19.20;91.70;;;;;;4226536;27;20213;-70
2022/04/01 00:14:53;;;;;;;4.55;1.52;;;19.20;91.70;;;;;;4226297;27;20217;-70
2022/04/01 00:16:55;;;;;;;2.25;1.58;;;19.20;91.70;;;;;;4225367;27;20617;-70
2022/04/01 00:18:59;;;;;;;1.55;1.30;;;19.20;91.70;;;;;;4227432;27;20206;-70
2022/04/01 00:21:01;;;;;;;1.60;1.30;;;19.20;91.70;;;;;;4228172;27;20256;-70
2022/04/01 00:23:04;;;;;;;2.10;1.20;;;19.20;91.70;;;;;;4228118;27;20287;-70
2022/04/01 00:25:09;;;;;;;1.98;1.60;;;19.20;91.60;;;;;;4228163;27;20217;-70
2022/04/01 00:27:11;;;;;;;2.80;1.67;;;19.10;91.50;;;;;;4228994;27;20217;-71
2022/04/01 00:29:16;;;;;;;1.85;1.30;;;19.10;91.60;;;;;;4229726;27;20250;-70
2022/04/01 00:31:18;;;;;;;1.33;1.23;;;19.10;91.50;;;;;;4225392;27;20209;-70
2022/04/01 00:33:20;;;;;;;1.55;1.23;;;19.10;91.50;;;;;;4224242;28;20778;-71
2022/04/01 00:35:23;;;;;;;1.60;1.50;;;19.10;91.50;;;;;;4226377;28;20718;-70
2022/04/01 00:37:25;;;;;;;1.70;1.30;;;19.10;91.30;;;;;;4224556;28;20628;-70
2022/04/01 00:39:30;;;;;;;3.67;1.67;;;19.10;91.40;;;;;;4242350;27;20209;-70
2022/04/01 00:41:34;;;;;;;1.67;1.50;;;19.10;91.40;;;;;;4243364;27;20273;-70
2022/04/01 00:43:37;;;;;;;2.28;1.50;;;19.00;91.30;;;;;;4242347;27;20262;-70
2022/04/01 00:45:39;;;;;;;1.73;1.63;;;19.00;91.60;;;;;;4244078;27;20609;-71
2022/04/01 00:47:41;;;;;;;2.60;1.50;;;19.10;91.70;;;;;;4243870;27;20220;-70
2022/04/01 00:49:45;;;;;;;1.80;1.70;;;19.10;91.40;;;;;;4243120;27;20290;-70
2022/04/01 00:51:49;;;;;;;1.55;1.45;;;19.00;91.50;;;;;;4242741;27;20531;-70
2022/04/01 00:53:52;;;;;;;1.90;1.73;;;19.00;91.70;;;;;;4243023;27;20209;-71
2022/04/01 00:55:54;;;;;;;2.53;1.90;;;19.00;91.20;;;;;;4242129;27;20262;-70
2022/04/01 00:57:58;;;;;;;1.67;1.50;;;19.00;91.30;;;;;;4243469;27;20225;-70
2022/04/01 01:00:00;;;;;;;2.15;1.75;;;19.00;91.40;;;;;;4243859;27;20600;-71
2022/04/01 01:02:04;;;;;;;2.28;1.50;;;19.00;91.20;;;;;;4243530;27;20630;-70
2022/04/01 01:04:08;;;;;;;2.03;1.50;;;19.00;91.30;;;;;;4242899;27;20278;-70
2022/04/01 01:06:10;;;;;;;1.60;1.50;;;19.00;91.40;;;;;;4243236;27;20209;-70
2022/04/01 01:08:13;;;;;;;2.03;1.70;;;19.00;91.40;;;;;;4243420;27;20217;-70
2022/04/01 01:10:18;;;;;;;1.65;1.50;;;19.00;91.50;;;;;;4242808;27;20241;-70
2022/04/01 01:12:20;;;;;;;1.75;1.52;;;19.00;91.40;;;;;;4240904;27;20213;-70
2022/04/01 01:14:30;;;;;;;1.70;1.60;;;19.00;91.40;;;;;;4242763;27;20717;-70
2022/04/01 01:16:32;;;;;;;3.15;1.60;;;18.90;91.10;;;;;;4243733;27;20208;-70
2022/04/01 01:18:35;;;;;;;1.92;1.60;;;18.90;91.30;;;;;;4243215;27;20258;-70
2022/04/01 01:20:37;;;;;;;2.03;1.80;;;18.90;91.30;;;;;;4242989;27;20710;-70
2022/04/01 01:22:41;;;;;;;2.10;1.90;;;18.90;91.30;;;;;;4243241;27;20605;-70
2022/04/01 01:24:45;;;;;;;1.50;1.40;;;18.90;91.10;;;;;;4243578;27;20259;-70
2022/04/01 01:26:51;;;;;;;1.77;1.65;;;18.90;91.00;;;;;;4237937;27;20225;-70
2022/04/01 01:28:56;;;;;;;1.88;1.38;;;18.90;91.10;;;;;;4242525;27;20209;-70
2022/04/01 01:30:59;;;;;;;1.88;1.60;;;18.90;91.00;;;;;;4241500;27;20278;-70
2022/04/01 01:33:02;;;;;;;1.70;1.60;;;18.90;91.20;;;;;;4242631;27;20236;-70
2022/04/01 01:35:05;;;;;;;2.72;1.58;;;18.90;91.20;;;;;;4241567;27;20214;-71
2022/04/01 01:37:10;;;;;;;2.10;1.70;;;18.90;91.10;;;;;;4242819;27;20205;-71
2022/04/01 01:39:12;;;;;;;1.60;1.50;;;18.90;91.10;;;;;;4242404;27;20225;-74
2022/04/01 01:41:16;;;;;;;1.40;1.30;;;18.80;90.80;;;;;;4242537;27;20242;-74
2022/04/01 01:43:18;;;;;;;2.22;1.65;;;18.80;90.90;;;;;;4242436;27;20217;-70
2022/04/01 01:45:20;;;;;;;1.50;1.40;;;18.80;90.80;;;;;;4242465;27;20614;-70
2022/04/01 01:47:23;;;;;;;1.70;1.60;;;18.80;90.90;;;;;;4242696;28;20216;-70
2022/04/01 01:49:25;;;;;;;1.70;1.35;;;18.80;90.90;;;;;;4241770;28;20628;-70
2022/04/01 01:56:07;;;;;;;1.80;1.67;;;18.80;90.90;;;;;;4243608;28;20197;-70
2022/04/01 01:58:11;;;;;;;1.73;1.60;;;18.80;90.80;;;;;;4242909;28;20217;-70
2022/04/01 02:00:20;;;;;;;1.35;1.20;;;18.80;90.80;;;;;;4242189;28;20247;-70
2022/04/01 02:02:22;;;;;;;1.95;1.65;;;18.80;91.10;;;;;;4240398;27;20213;-70
2022/04/01 02:04:25;;;;;;;1.38;1.27;;;18.80;90.80;;;;;;4242904;28;20205;-70
2022/04/01 02:06:27;;;;;;;1.88;1.52;;;18.80;90.80;;;;;;4242488;28;20238;-70
2022/04/01 02:08:29;;;;;;;1.55;1.42;;;18.80;90.80;;;;;;4243262;28;20324;-70
2022/04/01 02:10:32;;;;;;;2.33;1.38;;;18.80;90.80;;;;;;4241435;27;20289;-70
2022/04/01 02:12:35;;;;;;;1.48;1.35;;;18.80;91.30;;;;;;4242206;28;20884;-70
2022/04/01 02:14:39;;;;;;;1.40;1.30;;;18.70;90.90;;;;;;4243315;27;20609;-74
2022/04/01 02:16:43;;;;;;;1.60;1.38;;;18.70;91.00;;;;;;4241116;28;20262;-74
2022/04/01 02:18:46;;;;;;;2.20;1.50;;;18.70;90.70;;;;;;4242299;28;20246;-74
2022/04/01 02:20:50;;;;;;;1.30;1.20;;;18.70;91.00;;;;;;4241626;28;20614;-74
2022/04/01 02:22:53;;;;;;;1.55;1.40;;;18.70;91.00;;;;;;4241887;27;20316;-74
2022/04/01 02:24:56;;;;;;;1.58;1.48;;;18.70;90.60;;;;;;4241041;28;20235;-74
2022/04/01 02:26:59;;;;;;;1.27;1.17;;;18.70;90.50;;;;;;4241170;28;20738;-74
2022/04/01 02:29:03;;;;;;;1.50;1.40;;;18.70;90.80;;;;;;4241662;28;21085;-74
2022/04/01 02:31:08;;;;;;;1.80;1.30;;;18.70;90.60;;;;;;4243093;28;20237;-74
2022/04/01 02:33:10;;;;;;;1.60;1.50;;;18.70;90.60;;;;;;4241862;28;20252;-73
2022/04/01 02:35:12;;;;;;;1.90;1.25;;;18.60;90.50;;;;;;4242874;28;20217;-73
2022/04/01 02:37:15;;;;;;;1.30;1.20;;;18.60;90.60;;;;;;4240236;27;20690;-74
2022/04/01 02:39:17;;;;;;;1.63;1.30;;;18.70;90.40;;;;;;4242966;28;20641;-74
2022/04/01 02:41:19;;;;;;;1.60;1.27;;;18.70;90.60;;;;;;4241364;28;20310;-74
2022/04/01 02:43:22;;;;;;;1.50;1.25;;;18.60;90.40;;;;;;4242671;27;20221;-74
2022/04/01 02:45:25;;;;;;;2.30;1.35;;;18.60;90.40;;;;;;4242530;28;20217;-73
2022/04/01 02:47:28;;;;;;;1.75;1.05;;;18.60;90.70;;;;;;4242525;28;20281;-73
2022/04/01 02:49:31;;;;;;;1.83;1.30;;;18.60;90.40;;;;;;4241791;28;20278;-73
2022/04/01 02:51:34;;;;;;;1.40;1.30;;;18.60;90.50;;;;;;4241941;28;20237;-73
2022/04/01 02:53:36;;;;;;;1.40;1.30;;;18.60;90.70;;;;;;4240207;28;20602;-74
2022/04/01 02:55:39;;;;;;;1.45;1.20;;;18.60;90.70;;;;;;4242039;28;20270;-73
2022/04/01 02:57:42;;;;;;;1.20;1.10;;;18.60;90.30;;;;;;4241323;28;20221;-74
2022/04/01 02:59:44;;;;;;;1.20;1.10;;;18.60;90.80;;;;;;4240714;28;20355;-74
2022/04/01 03:01:46;;;;;;;1.48;1.38;;;18.60;90.40;;;;;;4242838;27;20251;-74
2022/04/01 03:03:50;;;;;;;1.10;1.00;;;18.60;90.40;;;;;;4243800;27;20628;-74
2022/04/01 03:05:54;;;;;;;1.65;1.20;;;18.50;90.80;;;;;;4245055;27;20213;-73
2022/04/01 03:07:56;;;;;;;1.33;1.23;;;18.60;90.60;;;;;;4245043;27;20246;-74
2022/04/01 03:09:58;;;;;;;1.15;1.13;;;18.50;90.30;;;;;;4245937;27;20997;-74
2022/04/01 03:12:01;;;;;;;1.30;1.20;;;18.50;90.40;;;;;;4243468;27;20249;-74
2022/04/01 03:14:03;;;;;;;1.67;1.30;;;18.60;90.90;;;;;;4241515;27;20221;-74
2022/04/01 03:16:06;;;;;;;1.17;1.08;;;18.50;90.40;;;;;;4245718;27;20209;-74
2022/04/01 03:18:09;;;;;;;1.10;1.00;;;18.50;90.20;;;;;;4243887;27;20719;-74
2022/04/01 03:20:13;;;;;;;1.40;1.30;;;18.50;90.30;;;;;;4245871;27;20603;-74
2022/04/01 03:22:16;;;;;;;1.33;1.23;;;18.50;90.20;;;;;;4243915;27;20217;-74
2022/04/01 03:24:19;;;;;;;1.52;1.25;;;18.50;90.50;;;;;;4244315;27;20230;-73
2022/04/01 03:26:23;;;;;;;1.25;1.15;;;18.50;90.50;;;;;;4245261;27;20217;-74
2022/04/01 03:28:25;;;;;;;1.60;1.27;;;18.50;90.40;;;;;;4243803;27;20254;-74
2022/04/01 03:30:27;;;;;;;2.00;1.00;;;18.50;90.40;;;;;;4244698;27;20213;-74
2022/04/01 03:32:30;;;;;;;1.30;1.20;;;18.50;90.30;;;;;;4243910;27;20289;-73
2022/04/01 03:34:33;;;;;;;1.08;0.98;;;18.50;90.40;;;;;;4244310;27;20638;-73
2022/04/01 03:36:36;;;;;;;1.15;1.05;;;18.50;90.30;;;;;;4243833;27;20274;-74
2022/04/01 03:38:39;;;;;;;1.20;1.10;;;18.50;90.60;;;;;;4244315;27;20260;-73
2022/04/01 03:40:42;;;;;;;1.10;1.00;;;18.50;90.20;;;;;;4244676;27;20202;-73
2022/04/01 03:42:46;;;;;;;1.42;1.10;;;18.50;90.50;;;;;;4243555;27;20217;-70
2022/04/01 03:44:49;;;;;;;1.20;1.05;;;18.50;90.10;;;;;;4243485;27;20220;-71
2022/04/01 03:46:56;;;;;;;1.20;1.10;;;18.50;90.30;;;;;;4244636;27;20216;-71
2022/04/01 03:49:03;;;;;;;1.25;1.10;;;18.50;90.20;;;;;;4242627;27;20522;-71
2022/04/01 03:51:07;;;;;;;2.13;1.10;;;18.40;90.30;;;;;;4243178;27;20285;-70
2022/04/01 03:53:10;;;;;;;1.33;1.10;;;18.50;90.40;;;;;;4245020;27;20258;-70
2022/04/01 03:55:14;;;;;;;1.52;1.13;;;18.50;90.40;;;;;;4243926;27;20213;-70
2022/04/01 03:57:16;;;;;;;1.02;0.93;;;18.40;90.50;;;;;;4243025;27;20254;-70
2022/04/01 03:59:19;;;;;;;1.23;1.08;;;18.40;90.20;;;;;;4244783;27;20213;-71
2022/04/01 04:01:22;;;;;;;1.05;0.95;;;18.40;90.10;;;;;;4243872;27;20224;-71
2022/04/01 04:03:25;;;;;;;1.30;1.20;;;18.40;90.10;;;;;;4243775;27;20225;-70
2022/04/01 04:05:30;;;;;;;1.67;1.05;;;18.40;90.10;;;;;;4243476;27;20221;-70
2022/04/01 04:07:33;;;;;;;1.05;0.95;;;18.40;90.10;;;;;;4244194;27;20332;-70
2022/04/01 04:09:39;;;;;;;1.60;1.10;;;18.40;90.20;;;;;;4243464;27;20665;-70
2022/04/01 04:11:42;;;;;;;1.25;1.02;;;18.40;90.20;;;;;;4243979;27;20689;-70
2022/04/01 04:13:45;;;;;;;0.90;0.90;;;18.40;90.10;;;;;;4241742;27;20650;-70
2022/04/01 04:15:59;;;;;;;1.33;1.10;;;18.40;90.10;;;;;;4241231;27;20213;-70
2022/04/01 04:18:05;;;;;;;1.60;1.00;;;18.40;90.20;;;;;;4241825;27;20213;-70
2022/04/01 04:20:13;;;;;;;0.90;0.90;;;18.40;90.20;;;;;;4242867;27;20234;-70
2022/04/01 04:22:21;;;;;;;1.10;1.00;;;18.40;90.20;;;;;;4244154;27;20205;-70
2022/04/01 04:24:31;;;;;;;1.10;1.00;;;18.40;90.00;;;;;;4242818;27;20217;-70
2022/04/01 04:26:39;;;;;;;1.30;1.20;;;18.40;90.10;;;;;;4243153;27;20598;-70
2022/04/01 04:28:46;;;;;;;0.73;0.70;;;18.40;90.30;;;;;;4243047;27;20533;-70
2022/04/01 04:30:51;;;;;;;1.08;0.95;;;18.30;90.10;;;;;;4241665;27;20217;-70
2022/04/01 04:32:57;;;;;;;1.23;0.98;;;18.40;90.10;;;;;;4233095;27;20601;-70
2022/04/01 04:35:04;;;;;;;1.25;1.00;;;18.30;90.00;;;;;;4227169;27;21196;-70
2022/04/01 04:37:10;;;;;;;1.33;0.98;;;18.30;90.10;;;;;;4231155;27;20205;-71
2022/04/01 04:39:16;;;;;;;1.55;0.85;;;18.30;90.00;;;;;;4228019;27;20214;-71
2022/04/01 04:41:20;;;;;;;1.45;1.00;;;18.30;90.00;;;;;;4227600;27;21056;-70
2022/04/01 04:43:24;;;;;;;0.90;0.90;;;18.30;90.00;;;;;;4228900;27;20217;-70
2022/04/01 04:45:28;;;;;;;1.50;1.10;;;18.30;90.20;;;;;;4225173;27;20218;-70
2022/04/01 04:47:30;;;;;;;1.00;0.88;;;18.30;90.00;;;;;;4228762;27;20258;-70
2022/04/01 04:49:33;;;;;;;1.33;0.98;;;18.30;90.10;;;;;;4228534;27;20225;-70
2022/04/01 04:51:36;;;;;;;1.05;0.98;;;18.30;89.90;;;;;;4223833;27;20245;-70
2022/04/01 04:53:40;;;;;;;0.75;0.75;;;18.30;89.70;;;;;;4224903;27;20221;-70
2022/04/01 04:55:45;;;;;;;1.88;0.98;;;18.30;89.80;;;;;;4222987;27;20251;-70
2022/04/01 04:57:49;;;;;;;1.02;0.95;;;18.20;90.00;;;;;;4215882;28;20274;-70
2022/04/01 04:59:53;;;;;;;1.40;0.93;;;18.20;89.90;;;;;;4216703;28;20270;-71
2022/04/01 05:01:58;;;;;;;1.33;0.95;;;18.40;89.80;;;;;;4216265;27;20214;-70
2022/04/01 05:04:15;;;;;;;1.17;0.95;;;18.40;90.10;;;;;;4215839;27;20255;-70
2022/04/01 05:06:21;;;;;;;0.95;0.88;;;18.40;90.40;;;;;;4220413;27;20319;-70
2022/04/01 05:08:32;;;;;;;1.25;0.93;;;18.40;90.00;;;;;;4228723;27;20256;-70
2022/04/01 05:10:42;;;;;;;1.20;1.08;;;18.50;90.50;;;;;;4225541;27;20661;-70
2022/04/01 05:12:57;;;;;;;1.27;1.10;;;18.50;90.40;;;;;;4224480;27;20287;-70
2022/04/01 05:15:09;;;;;;;0.80;0.80;;;18.50;90.30;;;;;;4228828;27;20213;-71
2022/04/01 05:17:17;;;;;;;0.80;0.80;;;18.50;90.60;;;;;;4225709;27;20338;-70
2022/04/01 05:19:25;;;;;;;0.93;0.80;;;18.50;90.60;;;;;;4227801;27;20213;-70
2022/04/01 05:21:38;;;;;;;0.80;0.80;;;18.50;90.90;;;;;;4227996;27;20617;-70
2022/04/01 05:23:48;;;;;;;1.15;0.85;;;18.60;90.90;;;;;;4227746;27;20950;-70
2022/04/01 05:26:04;;;;;;;1.10;0.98;;;18.60;91.10;;;;;;4224003;28;20262;-70
2022/04/01 05:28:20;;;;;;;1.00;0.82;;;18.60;91.30;;;;;;4226608;27;20213;-70
2022/04/01 05:30:29;;;;;;;1.25;1.10;;;18.60;91.20;;;;;;4224675;27;20267;-70
2022/04/01 05:32:38;;;;;;;1.13;1.02;;;18.60;91.10;;;;;;4215928;27;20230;-70
2022/04/01 05:34:44;;;;;;;0.98;0.90;;;18.70;91.20;;;;;;4210680;28;20210;-70
2022/04/01 05:36:50;;;;;;;1.00;0.90;;;18.70;91.30;;;;;;4211136;28;20218;-70
2022/04/01 05:38:54;;;;;;;1.10;0.90;;;18.70;91.40;;;;;;4210149;28;20586;-70
2022/04/01 05:40:57;;;;;;;2.55;0.90;;;18.70;91.30;;;;;;4214308;28;20268;-70
2022/04/01 05:43:02;;;;;;;2.78;1.10;;;18.70;91.00;;;;;;4213643;28;20288;-74
2022/04/01 05:45:06;;;;;;;0.90;0.90;;;18.70;91.50;;;;;;4213256;28;20618;-74
2022/04/01 05:47:10;;;;;;;1.08;0.90;;;18.70;91.40;;;;;;4213745;28;20611;-73
2022/04/01 05:49:14;;;;;;;1.23;1.05;;;18.80;91.40;;;;;;4212173;28;20214;-73
2022/04/01 05:51:17;;;;;;;1.30;1.00;;;18.80;91.50;;;;;;4210668;28;20245;-74
2022/04/01 05:53:22;;;;;;;1.20;1.10;;;18.80;91.30;;;;;;4211193;28;20234;-74
2022/04/01 05:55:26;;;;;;;1.10;1.00;;;18.80;91.60;;;;;;4212253;28;20544;-74
2022/04/01 05:57:29;;;;;;;1.20;1.10;;;18.80;91.60;;;;;;4211503;28;20218;-73
2022/04/01 05:59:32;;;;;;;1.00;0.90;;;18.90;91.50;;;;;;4212162;28;20226;-73
2022/04/01 06:01:42;;;;;;;1.20;1.00;;;18.90;91.40;;;;;;4210632;28;20214;-74
2022/04/01 06:04:21;;;;;;;0.90;0.90;;;18.90;91.70;;;;;;4209133;28;20212;-74
2022/04/01 06:06:30;;;;;;;0.98;0.88;;;18.90;91.70;;;;;;4209019;28;20218;-73
2022/04/01 06:08:47;;;;;;;1.23;0.93;;;18.90;91.60;;;;;;4207918;28;20214;-74
2022/04/01 06:11:00;;;;;;;1.02;0.90;;;18.90;91.90;;;;;;4208353;28;20255;-74
2022/04/01 06:13:16;;;;;;;0.85;0.85;;;18.90;91.90;;;;;;4204277;28;20242;-74
2022/04/01 06:15:25;;;;;;;1.33;1.00;;;18.90;91.80;;;;;;4203842;28;20242;-73
2022/04/01 06:17:40;;;;;;;0.70;0.70;;;19.00;91.90;;;;;;4195143;28;20237;-74
2022/04/01 06:19:45;;;;;;;1.27;0.98;;;19.00;92.00;;;;;;4203475;28;20582;-74
2022/04/01 06:21:54;;;;;;;1.50;1.20;;;19.00;92.00;;;;;;4200730;28;20215;-74
2022/04/01 06:24:09;;;;;;;0.80;0.80;;;19.00;92.00;;;;;;4205366;28;20215;-74
2022/04/01 06:26:14;;;;;;;1.02;0.93;;;19.00;91.90;;;;;;4203004;28;20276;-74
2022/04/01 06:28:24;;;;;;;1.17;1.08;;;19.00;91.90;;;;;;4210404;28;20572;-74
2022/04/01 06:30:28;;;;;;;1.17;1.08;;;19.00;91.90;;;;;;4210532;28;20213;-73
2022/04/01 06:32:38;;;;;;;1.10;0.90;;;19.10;92.00;;;;;;4211660;28;20230;-74
2022/04/01 06:34:59;;;;;;;0.95;0.80;;;19.00;92.00;;;;;;4211525;28;20255;-74
2022/04/01 06:37:05;;;;;;;1.00;0.90;;;19.10;92.00;;;;;;4210330;28;20731;-73
2022/04/01 06:39:09;;;;;;;1.00;0.90;;;19.10;92.20;;;;;;4214763;28;20263;-70
2022/04/01 06:41:19;;;;;;;0.80;0.80;;;19.10;92.10;;;;;;4216143;28;20214;-70
2022/04/01 06:43:22;;;;;;;0.90;0.90;;;19.10;92.10;;;;;;4215349;28;20260;-70
2022/04/01 06:45:25;;;;;;;1.00;0.90;;;19.10;92.10;;;;;;4217471;28;20219;-70
2022/04/01 06:47:27;;;;;;;1.27;0.90;;;19.10;91.90;;;;;;4215187;28;20263;-70
2022/04/01 06:49:30;;;;;;;2.60;1.00;;;19.10;92.10;;;;;;4210003;28;20226;-70
2022/04/01 06:51:32;;;;;;;2.17;0.90;;;19.10;91.90;;;;;;4210950;28;20260;-70
2022/04/01 06:53:36;;;;;;;1.05;0.93;;;19.10;92.00;;;;;;4213255;28;20234;-73
2022/04/01 06:55:38;;;;;;;2.03;0.93;;;19.20;92.10;;;;;;4213409;28;20234;-74
2022/04/01 06:57:41;;;;;;;1.63;1.10;;;19.20;91.90;;;;;;4210109;28;20244;-74
2022/04/01 06:59:43;;;;;;;1.05;0.93;;;19.20;92.20;;;;;;4211336;28;20226;-73
2022/04/01 07:01:46;;;;;;;0.70;0.70;;;19.20;92.10;;;;;;4210773;28;20219;-74
2022/04/01 07:03:48;;;;;;;1.00;0.90;;;19.20;92.20;;;;;;4211042;28;20551;-73
2022/04/01 07:05:51;;;;;;;0.80;0.80;;;19.20;92.10;;;;;;4210395;28;20207;-73
2022/04/01 07:07:57;;;;;;;1.00;1.00;;;19.20;92.10;;;;;;4210229;28;20260;-75
2022/04/01 07:10:01;;;;;;;1.15;1.05;;;19.20;92.00;;;;;;4209827;28;20261;-74
2022/04/01 07:12:04;;;;;;;1.02;0.93;;;19.20;91.90;;;;;;4208344;28;20206;-73
2022/04/01 07:14:06;;;;;;;0.85;0.85;;;19.10;91.70;;;;;;4211628;28;20229;-73
2022/04/01 07:16:10;;;;;;;0.70;0.70;;;19.10;91.80;;;;;;4210651;28;20275;-73
2022/04/01 07:18:13;;;;;;;1.20;0.82;;;19.20;91.90;;;;;;4203432;28;20214;-73
2022/04/01 07:20:15;;;;;;;0.85;0.82;;;19.20;92.00;;;;;;4208205;28;20219;-73
2022/04/01 07:22:18;;;;;;;0.88;0.85;;;19.20;92.20;;;;;;4209357;28;20230;-73
2022/04/01 07:24:20;;;;;;;1.15;1.00;;;19.30;92.20;;;;;;4212223;28;20655;-73
2022/04/01 07:26:24;;;;;;;0.90;0.90;;;19.30;92.10;;;;;;4202479;28;20221;-73
2022/04/01 07:28:26;;;;;;;1.10;0.93;;;19.30;91.80;;;;;;4212792;28;20267;-73
2022/04/01 07:30:28;;;;;;;0.80;0.80;;;19.30;91.90;;;;;;4213750;28;20214;-74
2022/04/01 07:32:32;;;;;;;1.30;0.90;;;19.30;92.10;;;;;;4213032;28;20234;-74
2022/04/01 07:34:36;;;;;;;1.02;0.88;;;19.30;92.10;;;;;;4229065;27;20302;-73
2022/04/01 07:36:38;;;;;;;1.00;0.88;;;19.30;91.80;;;;;;4214313;28;20626;-73
2022/04/01 07:38:40;;;;;;;2.00;0.95;;;19.40;92.10;;;;;;4217477;28;20227;-73
2022/04/01 07:40:43;;;;;;;1.10;1.00;;;19.40;92.10;;;;;;4209948;28;20664;-74
2022/04/01 07:42:48;;;;;;;1.55;1.10;;;19.40;92.10;;;;;;4210192;27;20275;-73
2022/04/01 07:44:51;;;;;;;0.90;0.90;;;19.40;92.20;;;;;;4218705;27;20754;-74
2022/04/01 07:46:55;;;;;;;1.38;1.10;;;19.40;92.00;;;;;;4223964;28;20736;-73
2022/04/01 07:48:57;;;;;;;1.25;0.98;;;19.50;92.00;;;;;;4216073;28;20279;-74
2022/04/01 07:50:59;;;;;;;1.65;1.00;;;19.50;92.40;;;;;;4220408;27;20626;-74
2022/04/01 07:53:03;;;;;;;1.00;0.90;;;19.40;92.00;;;;;;4223759;27;20265;-73
2022/04/01 07:55:06;;;;;;;2.03;1.00;;;19.50;92.00;;;;;;4222986;28;20263;-73
2022/04/01 07:57:10;;;;;;;0.85;0.80;;;19.50;92.10;;;;;;4225875;27;20214;-74
2022/04/01 07:59:15;;;;;;;0.93;0.90;;;19.50;92.10;;;;;;4210928;28;21592;-74
2022/04/01 08:01:18;;;;;;;1.25;0.90;;;19.60;92.20;;;;;;4214927;28;20202;-73
2022/04/01 08:03:20;;;;;;;0.93;0.90;;;19.50;92.00;;;;;;4205975;28;20252;-74
2022/04/01 08:05:23;;;;;;;1.10;0.80;;;19.60;92.10;;;;;;4210260;28;20272;-74
2022/04/01 08:07:26;;;;;;;1.65;1.00;;;19.60;92.30;;;;;;4224018;28;20209;-74
2022/04/01 08:09:29;;;;;;;1.10;0.95;;;19.60;92.10;;;;;;4219836;27;20214;-74
2022/04/01 08:11:31;;;;;;;1.00;0.80;;;19.70;92.20;;;;;;4217113;27;20239;-74
2022/04/01 08:13:34;;;;;;;2.45;1.00;;;19.60;92.10;;;;;;4205921;28;20242;-74
2022/04/01 08:15:37;;;;;;;1.00;0.90;;;19.60;92.60;;;;;;4215350;28;20214;-73
2022/04/01 08:17:40;;;;;;;1.35;1.00;;;19.70;92.10;;;;;;4213039;28;20215;-73
2022/04/01 08:19:44;;;;;;;2.55;1.10;;;19.70;91.80;;;;;;4214146;28;20259;-73
2022/04/01 08:21:47;;;;;;;3.58;1.00;;;19.60;91.70;;;;;;4216455;28;20218;-74
2022/04/01 08:23:49;;;;;;;1.27;1.00;;;19.70;91.80;;;;;;4216375;28;20654;-75
2022/04/01 08:25:52;;;;;;;1.60;0.90;;;19.90;91.70;;;;;;4212190;27;20205;-75
2022/04/01 08:27:54;;;;;;;1.20;1.05;;;20.00;90.90;;;;;;4213918;28;20700;-75
2022/04/01 08:29:59;;;;;;;1.00;0.90;;;20.00;90.60;;;;;;4212128;27;20305;-75
2022/04/01 08:32:05;;;;;;;1.70;1.02;;;20.20;90.60;;;;;;4221274;27;20317;-74
2022/04/01 08:34:07;;;;;;;4.43;1.13;;;20.30;90.50;;;;;;4207069;28;20237;-74
2022/04/01 08:36:10;;;;;;;1.42;0.95;;;20.40;90.50;;;;;;4208344;27;21058;-75
2022/04/01 08:38:12;;;;;;;1.42;1.00;;;20.50;90.80;;;;;;4218644;28;20262;-75
2022/04/01 08:40:14;;;;;;;3.65;0.90;;;20.50;90.70;;;;;;4214884;28;20210;-74
2022/04/01 08:42:17;;;;;;;2.38;1.00;;;20.50;90.90;;;;;;4210605;28;20267;-73
2022/04/01 08:44:22;;;;;;;1.85;1.00;;;20.60;90.50;;;;;;4211212;28;20281;-73
2022/04/01 08:46:25;;;;;;;2.08;1.02;;;20.70;91.10;;;;;;4212532;28;20213;-74
2022/04/01 08:48:29;;;;;;;1.50;1.35;;;20.70;90.40;;;;;;4220258;27;20217;-74
2022/04/01 08:50:32;;;;;;;1.83;1.00;;;20.80;90.40;;;;;;4205250;28;20267;-73
2022/04/01 08:52:35;;;;;;;3.25;0.90;;;20.80;90.90;;;;;;4207310;28;20218;-73
2022/04/01 08:54:37;;;;;;;1.35;1.00;;;20.80;91.10;;;;;;4214416;28;20238;-74
2022/04/01 08:56:40;;;;;;;4.70;1.08;;;20.90;90.20;;;;;;4218740;28;20259;-74
2022/04/01 08:58:42;;;;;;;2.55;1.00;;;20.90;90.20;;;;;;4217481;28;20222;-73
2022/04/01 09:00:45;;;;;;;1.10;1.00;;;20.90;90.50;;;;;;4217825;27;20283;-74
2022/04/01 09:02:59;;;;;;;1.48;0.90;;;21.00;90.80;;;;;;4211068;28;20202;-74
2022/04/01 09:05:07;;;;;;;2.47;1.15;;;21.00;90.60;;;;;;4215951;27;20210;-73
2022/04/01 09:07:17;;;;;;;1.42;1.05;;;21.10;90.70;;;;;;4214622;28;20251;-74
2022/04/01 09:09:25;;;;;;;5.18;1.35;;;21.10;91.00;;;;;;4215765;27;20225;-74
2022/04/01 09:11:27;;;;;;;7.60;1.27;;;21.00;90.50;;;;;;4221063;28;20239;-75
2022/04/01 09:13:31;;;;;;;5.30;1.40;;;21.10;90.90;;;;;;4216295;28;20267;-75
2022/04/01 09:15:41;;;;;;;4.22;1.10;;;21.10;90.80;;;;;;4214806;28;20247;-73
2022/04/01 09:17:46;;;;;;;1.98;1.08;;;21.10;90.70;;;;;;4218481;27;20255;-74
2022/04/01 09:19:49;;;;;;;3.75;1.30;;;21.20;90.60;;;;;;4210154;28;20219;-76
2022/04/01 09:21:53;;;;;;;2.58;1.00;;;21.20;90.70;;;;;;4216377;27;20614;-75
2022/04/01 09:23:56;;;;;;;4.25;1.20;;;21.20;90.90;;;;;;4210846;28;20446;-75
2022/04/01 09:26:00;;;;;;;4.07;1.35;;;21.20;90.60;;;;;;4219236;28;20214;-75
2022/04/01 09:28:02;;;;;;;14.77;2.15;;;21.20;90.70;;;;;;4216493;28;20219;-74
2022/04/01 09:30:05;;;;;;;8.27;1.40;;;21.20;90.40;;;;;;4216318;28;20670;-74
2022/04/01 09:32:09;;;;;;;5.22;1.25;;;21.30;90.90;;;;;;4226550;27;20294;-74
2022/04/01 09:34:14;;;;;;;8.23;1.40;;;21.30;90.70;;;;;;4237487;27;20680;-74
2022/04/01 09:36:18;;;;;;;7.28;1.45;;;21.30;90.80;;;;;;4236716;27;20330;-74
2022/04/01 09:38:24;;;;;;;19.20;2.15;;;21.40;90.70;;;;;;4237613;27;20221;-75
2022/04/01 09:40:27;;;;;;;17.80;2.20;;;21.40;90.70;;;;;;4239734;27;20213;-75
2022/04/01 09:42:29;;;;;;;14.82;2.22;;;21.40;90.50;;;;;;4240206;27;20224;-75
2022/04/01 09:44:36;;;;;;;25.90;2.63;;;21.40;90.60;;;;;;4235808;27;20213;-74
2022/04/01 09:46:43;;;;;;;15.45;2.47;;;21.50;90.60;;;;;;4228018;27;20221;-72
2022/04/01 09:48:48;;;;;;;14.75;2.00;;;21.40;90.50;;;;;;4237362;27;20313;-74
2022/04/01 09:50:59;;;;;;;15.98;2.10;;;21.50;90.60;;;;;;4238330;27;20213;-74
2022/04/01 09:53:09;;;;;;;13.15;1.90;;;21.50;90.80;;;;;;4237484;27;20216;-75
2022/04/01 09:55:13;;;;;;;14.23;2.00;;;21.70;90.80;;;;;;4237232;27;20284;-76
2022/04/01 09:57:17;;;;;;;9.85;1.80;;;21.70;90.40;;;;;;4237144;27;20206;-75
2022/04/01 09:59:19;;;;;;;9.15;1.92;;;21.60;90.90;;;;;;4239173;27;20213;-75
2022/04/01 10:01:22;;;;;;;8.40;1.60;;;21.60;90.80;;;;;;4236422;27;20658;-78
2022/04/01 10:03:24;;;;;;;6.75;1.40;;;21.60;90.40;;;;;;4239469;27;20217;-73
2022/04/01 10:05:27;;;;;;;4.72;1.45;;;21.70;90.80;;;;;;4239874;27;20209;-77
2022/04/01 10:07:33;;;;;;;10.50;1.85;;;21.70;91.10;;;;;;4234579;27;20205;-77
2022/04/01 10:09:37;;;;;;;5.90;1.52;;;21.80;90.60;;;;;;4238618;27;20209;-76
2022/04/01 10:11:43;;;;;;;2.97;1.38;;;21.80;90.40;;;;;;4239819;27;20217;-75
2022/04/01 10:13:48;;;;;;;11.35;2.00;;;21.70;90.70;;;;;;4239663;27;20221;-76
2022/04/01 10:15:52;;;;;;;19.17;2.35;;;21.70;90.40;;;;;;4240095;27;20483;-76
2022/04/01 10:17:57;;;;;;;9.80;2.00;;;21.70;90.20;;;;;;4239105;27;20216;-75
2022/04/01 10:20:02;;;;;;;16.77;1.80;;;21.80;90.00;;;;;;4238649;27;20266;-74
2022/04/01 10:22:08;;;;;;;14.20;1.90;;;21.80;90.60;;;;;;4241377;27;20213;-74
2022/04/01 10:24:28;;;;;;;9.35;1.90;;;21.80;90.10;;;;;;4240206;27;20217;-74
2022/04/01 10:26:33;;;;;;;9.27;1.90;;;21.80;90.40;;;;;;4242322;27;20212;-75
2022/04/01 10:28:37;;;;;;;17.52;2.30;;;21.80;90.50;;;;;;4241207;27;20242;-74
2022/04/01 10:30:50;;;;;;;24.38;3.00;;;21.90;90.40;;;;;;4242222;27;20221;-76
2022/04/01 10:32:53;;;;;;;25.77;3.15;;;21.80;90.50;;;;;;4241497;27;20369;-73
2022/04/01 10:34:57;;;;;;;14.50;1.92;;;21.90;90.50;;;;;;4240054;27;20240;-73
2022/04/01 10:37:14;;;;;;;12.55;2.10;;;21.90;90.80;;;;;;4242041;27;20213;-80
2022/04/01 10:39:18;;;;;;;33.40;3.55;;;21.90;90.80;;;;;;4243719;27;20320;-75
2022/04/01 10:41:21;;;;;;;9.65;2.15;;;21.90;90.40;;;;;;4240075;27;20216;-75
2022/04/01 10:43:28;;;;;;;9.23;1.52;;;22.00;90.30;;;;;;4243785;27;20232;-76
2022/04/01 10:45:34;;;;;;;9.18;1.85;;;21.90;90.40;;;;;;4241512;27;20297;-76
2022/04/01 10:52:45;;;;;;;9.07;1.70;;;21.90;90.10;;;;;;4243356;27;20208;-77
2022/04/01 10:54:49;;;;;;;5.60;1.60;;;22.00;90.10;;;;;;4243279;27;20241;-78
2022/04/01 10:56:57;;;;;;;7.60;1.55;;;22.00;90.40;;;;;;4241517;27;20217;-80